Carnival Valor — H3VR — position and weather

sailwx.info

Track history (hours):
 
Tides and Currents Weather Stations Pressure Air Temp Water Temp Dewpoint Dewpoint Depression Visibility Wind Speed Wind Dir Waves Ship Positions

Carnival Valor

Last reported at 2017-Jan-18 01:33 UTC. Time now 2017-Jan-19 21:23 UTC.
Position N 20°44' W 086°52'.

Type: Ship. MMSI: 354298000.

Date/timePositionNaut miles runAvg speedWind from/ knotsBaromVisibWave heightAir tempDewpointWater temp
2017-Jan-18 01:33N 20°44' W 086°52'1616.1
2017-Jan-18 00:33N 20°29' W 086°59'1 0.6
2017-Jan-17 23:31N 20°29' W 086°59'0 0.0
2017-Jan-17 22:31N 20°29' W 086°59'0 0.0
2017-Jan-17 21:33N 20°29' W 086°59'0 0.0
2017-Jan-17 20:30N 20°29' W 086°59'0 0.0
2017-Jan-17 19:32N 20°29' W 086°59'0 0.0
2017-Jan-17 18:29N 20°29' W 086°59'0 0.0
2017-Jan-17 17:31N 20°29' W 086°59'0 0.0
2017-Jan-17 16:31N 20°29' W 086°59'0 0.0
2017-Jan-17 15:31N 20°29' W 086°59'0 0.0
2017-Jan-17 14:33N 20°29' W 086°59'0 0.3
2017-Jan-17 13:34N 20°29' W 086°59'9 8.9
2017-Jan-17 12:33N 20°38' W 086°56'67417.2
2017-Jan-15 21:29N 29°19' W 094°47'  
2017-Jan-12 02:08N 20°44' W 086°52'1220.7
2017-Jan-12 01:33N 20°35' W 086°60'6 5.9
2017-Jan-12 00:30N 20°29' W 086°59'0 0.0
2017-Jan-11 23:30N 20°29' W 086°59'0 0.0
2017-Jan-11 22:32N 20°29' W 086°59'0 0.0
2017-Jan-11 21:32N 20°29' W 086°59'0 0.0
2017-Jan-11 20:31N 20°29' W 086°59'0 0.0
2017-Jan-11 19:28N 20°29' W 086°59'0 0.0
2017-Jan-11 18:31N 20°29' W 086°59'0 0.0
2017-Jan-11 17:33N 20°29' W 086°59'0 0.0
2017-Jan-11 16:33N 20°29' W 086°59'0 0.0
2017-Jan-11 15:29N 20°29' W 086°59'0 0.1
2017-Jan-11 14:33N 20°29' W 086°59'9 8.5
2017-Jan-11 13:34N 20°37' W 086°57'67417.2
2017-Jan-09 22:28N 29°19' W 094°47'0 0.1
2017-Jan-09 19:21N 29°19' W 094°48'0 0.0
2017-Jan-09 16:13N 29°19' W 094°48'0 0.0
2017-Jan-09 14:12N 29°19' W 094°48'  
Track history (hours):
 
Tides and Currents Weather Stations Pressure Air Temp Water Temp Dewpoint Dewpoint Depression Visibility Wind Speed Wind Dir Waves Ship Positions

Carnival Valor

Last reported at 2017-Jan-18 01:33 UTC. Time now 2017-Jan-19 21:23 UTC.
Position N 20°44' W 086°52'.

Type: Ship. MMSI: 354298000.

Date/timePositionNaut miles runAvg speedWind from/ knotsBaromVisibWave heightAir tempDewpointWater temp
2017-Jan-18 01:33N 20°44' W 086°52'1616.1
2017-Jan-18 00:33N 20°29' W 086°59'1 0.6
2017-Jan-17 23:31N 20°29' W 086°59'0 0.0
2017-Jan-17 22:31N 20°29' W 086°59'0 0.0
2017-Jan-17 21:33N 20°29' W 086°59'0 0.0
2017-Jan-17 20:30N 20°29' W 086°59'0 0.0
2017-Jan-17 19:32N 20°29' W 086°59'0 0.0
2017-Jan-17 18:29N 20°29' W 086°59'0 0.0
2017-Jan-17 17:31N 20°29' W 086°59'0 0.0
2017-Jan-17 16:31N 20°29' W 086°59'0 0.0
2017-Jan-17 15:31N 20°29' W 086°59'0 0.0
2017-Jan-17 14:33N 20°29' W 086°59'0 0.3
2017-Jan-17 13:34N 20°29' W 086°59'9 8.9
2017-Jan-17 12:33N 20°38' W 086°56'67417.2
2017-Jan-15 21:29N 29°19' W 094°47'  
2017-Jan-12 02:08N 20°44' W 086°52'1220.7
2017-Jan-12 01:33N 20°35' W 086°60'6 5.9
2017-Jan-12 00:30N 20°29' W 086°59'0 0.0
2017-Jan-11 23:30N 20°29' W 086°59'0 0.0
2017-Jan-11 22:32N 20°29' W 086°59'0 0.0
2017-Jan-11 21:32N 20°29' W 086°59'0 0.0
2017-Jan-11 20:31N 20°29' W 086°59'0 0.0
2017-Jan-11 19:28N 20°29' W 086°59'0 0.0
2017-Jan-11 18:31N 20°29' W 086°59'0 0.0
2017-Jan-11 17:33N 20°29' W 086°59'0 0.0
2017-Jan-11 16:33N 20°29' W 086°59'0 0.0
2017-Jan-11 15:29N 20°29' W 086°59'0 0.1
2017-Jan-11 14:33N 20°29' W 086°59'9 8.5
2017-Jan-11 13:34N 20°37' W 086°57'67417.2
2017-Jan-09 22:28N 29°19' W 094°47'0 0.1
2017-Jan-09 19:21N 29°19' W 094°48'0 0.0
2017-Jan-09 16:13N 29°19' W 094°48'0 0.0
2017-Jan-09 14:12N 29°19' W 094°48'  

Dump ship's entire track history